Time;durP1;ratioP1;P1;durP2;ratioP2;P2;SDS_P1;SDS_P2;PMS_P1;PMS_P2;Temp;Humidity;BMP_temperature;BMP_pressure;BME280_temperature;BME280_humidity;BME280_pressure;Samples;Min_cycle;Max_cycle;Signal;HPM_P1;HPM_P2
2021/06/24 00:01:34;;;;;;;1.00;0.70;;;18.80;99.90;;;;;;5076020;28;20204;-87
2021/06/24 00:04:01;;;;;;;1.03;0.97;;;18.80;99.90;;;;;;5072591;28;20207;-87
2021/06/24 00:06:26;;;;;;;0.40;0.40;;;18.70;99.90;;;;;;5072815;28;20181;-87
2021/06/24 00:08:52;;;;;;;0.70;0.70;;;18.70;99.90;;;;;;5092809;28;20173;-87
2021/06/24 00:11:18;;;;;;;2.40;1.00;;;18.70;99.90;;;;;;5091452;28;20534;-87
2021/06/24 00:13:44;;;;;;;1.73;1.63;;;18.70;99.90;;;;;;5078988;28;20205;-87
2021/06/24 00:16:10;;;;;;;0.90;0.90;;;18.70;99.90;;;;;;5081280;28;20177;-87
2021/06/24 00:18:36;;;;;;;5.63;1.27;;;18.70;99.90;;;;;;5083532;28;20208;-87
2021/06/24 00:21:03;;;;;;;0.73;0.70;;;18.80;99.90;;;;;;5074868;28;20187;-88
2021/06/24 00:23:29;;;;;;;0.97;0.87;;;18.90;99.90;;;;;;5067545;28;20177;-88
2021/06/24 00:25:55;;;;;;;0.63;0.63;;;18.90;99.90;;;;;;5075845;28;20722;-87
2021/06/24 00:28:23;;;;;;;0.77;0.77;;;18.90;99.90;;;;;;5075739;28;20184;-87
2021/06/24 00:30:51;;;;;;;0.97;0.77;;;18.90;99.90;;;;;;5075398;28;20180;-87
2021/06/24 00:33:17;;;;;;;0.43;0.43;;;18.90;99.90;;;;;;5065298;28;20201;-87
2021/06/24 00:35:43;;;;;;;1.40;1.40;;;19.00;99.90;;;;;;5076977;28;20267;-88
2021/06/24 00:38:09;;;;;;;0.73;0.73;;;19.00;99.90;;;;;;5087402;28;20183;-87
2021/06/24 00:40:36;;;;;;;1.40;0.80;;;19.00;99.90;;;;;;5076824;28;20612;-87
2021/06/24 00:43:07;;;;;;;1.73;0.90;;;19.10;99.90;;;;;;5074258;28;20681;-87
2021/06/24 00:45:34;;;;;;;0.70;0.67;;;19.00;99.90;;;;;;5068635;28;20176;-87
2021/06/24 00:48:01;;;;;;;1.57;0.90;;;18.90;99.90;;;;;;5070156;28;20185;-87
2021/06/24 00:50:27;;;;;;;0.90;0.90;;;18.90;99.90;;;;;;5072741;28;20178;-87
2021/06/24 00:52:53;;;;;;;1.07;0.97;;;18.80;99.90;;;;;;5075642;28;20209;-87
2021/06/24 00:55:39;;;;;;;1.00;1.00;;;18.80;99.90;;;;;;5086499;28;20177;-87
2021/06/24 00:58:06;;;;;;;2.53;1.37;;;18.80;99.90;;;;;;5077218;28;20185;-87
2021/06/24 01:00:31;;;;;;;1.00;0.77;;;18.80;99.90;;;;;;5077518;28;20178;-87
2021/06/24 01:02:57;;;;;;;0.90;0.90;;;18.80;99.90;;;;;;5078602;28;20203;-87
2021/06/24 01:05:23;;;;;;;1.43;1.10;;;18.80;99.90;;;;;;5079660;28;20584;-87
2021/06/24 01:07:48;;;;;;;0.70;0.67;;;18.80;99.90;;;;;;5076385;28;20184;-87
2021/06/24 01:10:14;;;;;;;0.67;0.63;;;18.70;99.90;;;;;;5082444;28;20188;-87
2021/06/24 01:12:40;;;;;;;0.93;0.67;;;18.70;99.90;;;;;;5076079;28;20205;-87
2021/06/24 01:15:06;;;;;;;1.00;0.93;;;18.70;99.90;;;;;;5080602;28;20227;-87
2021/06/24 01:17:32;;;;;;;1.43;1.17;;;18.70;99.90;;;;;;5093257;28;20181;-87
2021/06/24 01:19:58;;;;;;;0.80;0.80;;;18.70;99.90;;;;;;5085405;28;20176;-87
2021/06/24 01:22:23;;;;;;;3.73;1.67;;;18.70;99.90;;;;;;5077941;28;20216;-86
2021/06/24 01:24:49;;;;;;;0.63;0.63;;;18.70;99.90;;;;;;5093825;28;20248;-88
2021/06/24 01:27:15;;;;;;;0.77;0.77;;;18.80;99.90;;;;;;5077401;28;20276;-87
2021/06/24 01:29:40;;;;;;;0.70;0.70;;;18.80;99.90;;;;;;5075224;28;20238;-87
2021/06/24 01:32:06;;;;;;;1.07;0.97;;;18.60;99.90;;;;;;5079583;28;20208;-87
2021/06/24 01:34:32;;;;;;;0.80;0.80;;;18.70;99.90;;;;;;5078527;28;20205;-87
2021/06/24 01:36:58;;;;;;;1.87;1.10;;;18.60;99.90;;;;;;5085570;28;20185;-87
2021/06/24 01:39:23;;;;;;;0.70;0.70;;;18.50;99.90;;;;;;5075589;28;20185;-87
2021/06/24 01:41:57;;;;;;;0.80;0.80;;;18.50;99.90;;;;;;5071656;28;20691;-87
2021/06/24 01:44:33;;;;;;;0.73;0.70;;;18.70;99.90;;;;;;5078563;28;20207;-87
2021/06/24 01:46:58;;;;;;;0.80;0.80;;;18.60;99.90;;;;;;5078404;28;20267;-87
2021/06/24 01:49:24;;;;;;;1.10;0.80;;;18.70;99.90;;;;;;5078184;28;20266;-87
2021/06/24 01:51:56;;;;;;;0.50;0.50;;;18.80;99.90;;;;;;5081310;28;20209;-87
2021/06/24 01:54:22;;;;;;;1.13;1.10;;;18.80;99.90;;;;;;5073096;28;20230;-87
2021/06/24 01:56:49;;;;;;;0.50;0.50;;;18.70;99.90;;;;;;5074895;28;20273;-87
2021/06/24 01:59:15;;;;;;;0.50;0.47;;;18.80;99.90;;;;;;5084691;28;20271;-87
2021/06/24 02:01:41;;;;;;;0.67;0.67;;;18.70;99.90;;;;;;5076959;28;20948;-87
2021/06/24 02:04:07;;;;;;;1.97;0.57;;;18.70;99.90;;;;;;5087208;28;20201;-87
2021/06/24 02:06:33;;;;;;;2.87;0.80;;;18.80;99.90;;;;;;5081029;28;20275;-88
2021/06/24 02:08:59;;;;;;;0.87;0.50;;;18.90;99.90;;;;;;5083079;28;20173;-87
2021/06/24 02:11:25;;;;;;;1.10;1.00;;;19.00;99.90;;;;;;5078470;28;20205;-87
2021/06/24 02:13:51;;;;;;;0.47;0.47;;;19.00;99.90;;;;;;5088651;28;20679;-88
2021/06/24 02:16:16;;;;;;;0.73;0.73;;;19.00;99.90;;;;;;5084445;28;20640;-87
2021/06/24 02:18:43;;;;;;;0.83;0.83;;;18.90;99.90;;;;;;5082572;28;20185;-87
2021/06/24 02:21:09;;;;;;;3.13;0.77;;;19.00;99.90;;;;;;5077350;28;20277;-87
2021/06/24 02:23:34;;;;;;;0.50;0.50;;;18.90;99.90;;;;;;5078517;28;20258;-87
2021/06/24 02:26:00;;;;;;;0.50;0.50;;;18.70;99.90;;;;;;5084575;28;20807;-87
2021/06/24 02:28:26;;;;;;;0.47;0.47;;;18.60;99.90;;;;;;5077809;28;20181;-87
2021/06/24 02:30:52;;;;;;;0.70;0.70;;;18.60;99.90;;;;;;5081886;28;20194;-87
2021/06/24 02:33:19;;;;;;;0.63;0.63;;;18.50;99.90;;;;;;5069674;28;20209;-87
2021/06/24 02:35:48;;;;;;;1.83;0.57;;;18.60;99.90;;;;;;5075966;28;20650;-87
2021/06/24 02:38:14;;;;;;;0.50;0.50;;;18.70;99.90;;;;;;5078558;28;20529;-88
2021/06/24 02:40:40;;;;;;;1.50;1.00;;;18.90;99.90;;;;;;5073870;28;20261;-87
2021/06/24 02:43:06;;;;;;;0.77;0.60;;;19.00;99.90;;;;;;5073124;28;20255;-87
2021/06/24 02:45:40;;;;;;;0.63;0.63;;;19.10;99.90;;;;;;5075445;28;20192;-86
2021/06/24 02:48:06;;;;;;;0.47;0.47;;;19.10;99.90;;;;;;5078514;28;20683;-87
2021/06/24 02:50:32;;;;;;;0.43;0.43;;;19.20;99.90;;;;;;5079735;28;20180;-87
2021/06/24 02:52:58;;;;;;;5.40;1.13;;;19.30;99.90;;;;;;5094987;28;20204;-88
2021/06/24 02:55:30;;;;;;;0.57;0.57;;;19.40;99.90;;;;;;5099331;28;20216;-87
2021/06/24 02:57:59;;;;;;;0.60;0.60;;;19.30;99.90;;;;;;5079178;28;20193;-87
2021/06/24 03:00:25;;;;;;;1.97;0.70;;;19.40;99.90;;;;;;5084685;28;20234;-87
2021/06/24 03:02:52;;;;;;;0.70;0.70;;;19.30;99.90;;;;;;5084177;28;20197;-87
2021/06/24 03:05:19;;;;;;;0.97;0.70;;;19.50;99.90;;;;;;5084620;28;20208;-87
2021/06/24 03:07:45;;;;;;;0.43;0.40;;;19.50;99.90;;;;;;5074500;28;20672;-87
2021/06/24 03:10:11;;;;;;;1.50;0.50;;;19.60;99.90;;;;;;5075069;28;20229;-87
2021/06/24 03:12:37;;;;;;;0.77;0.77;;;19.60;99.90;;;;;;5073649;28;20204;-87
2021/06/24 03:15:05;;;;;;;0.40;0.40;;;19.30;99.90;;;;;;5085534;28;20172;-87
2021/06/24 03:17:30;;;;;;;1.53;0.63;;;19.40;99.90;;;;;;5078899;28;20230;-87
2021/06/24 03:19:56;;;;;;;1.07;0.60;;;19.40;99.90;;;;;;5085923;28;20173;-86
2021/06/24 03:22:22;;;;;;;0.80;0.80;;;19.50;99.90;;;;;;5061237;28;20217;-87
2021/06/24 03:24:48;;;;;;;1.20;0.97;;;19.50;99.90;;;;;;5091856;28;20181;-87
2021/06/24 03:27:14;;;;;;;1.37;1.23;;;19.50;99.90;;;;;;5078022;28;20205;-87
2021/06/24 03:29:39;;;;;;;0.63;0.63;;;19.10;99.90;;;;;;5076809;28;20531;-87
2021/06/24 03:32:05;;;;;;;0.40;0.30;;;19.10;99.90;;;;;;5079076;28;20212;-87
2021/06/24 03:34:31;;;;;;;0.63;0.63;;;19.00;99.90;;;;;;5067100;28;20334;-87
2021/06/24 03:36:57;;;;;;;0.40;0.40;;;19.10;99.90;;;;;;5073775;28;20174;-87
2021/06/24 03:39:23;;;;;;;0.37;0.37;;;19.20;99.90;;;;;;5074796;28;20168;-87
2021/06/24 03:41:48;;;;;;;0.83;0.83;;;19.30;99.90;;;;;;5073743;28;20236;-87
2021/06/24 03:44:14;;;;;;;0.40;0.37;;;19.40;99.90;;;;;;5078087;28;20264;-87
2021/06/24 03:46:40;;;;;;;0.87;0.70;;;19.50;99.90;;;;;;5079083;28;20215;-89
2021/06/24 03:49:05;;;;;;;0.60;0.57;;;19.50;99.90;;;;;;5084123;28;20563;-87
2021/06/24 03:51:31;;;;;;;2.50;1.00;;;19.60;99.90;;;;;;5078991;28;20232;-87
2021/06/24 03:53:57;;;;;;;0.87;0.47;;;19.40;99.90;;;;;;5083145;28;20268;-87
2021/06/24 03:56:23;;;;;;;1.30;1.20;;;19.30;99.90;;;;;;5081157;28;20177;-87
2021/06/24 03:58:49;;;;;;;0.83;0.50;;;18.90;99.90;;;;;;5092843;28;20230;-87
2021/06/24 04:01:15;;;;;;;0.73;0.73;;;18.70;99.90;;;;;;5074025;28;20169;-87
2021/06/24 04:03:40;;;;;;;0.43;0.43;;;18.60;99.90;;;;;;5078213;28;20764;-87
2021/06/24 04:06:07;;;;;;;0.53;0.53;;;18.60;99.90;;;;;;5082764;28;20181;-87
2021/06/24 04:08:33;;;;;;;0.57;0.57;;;18.70;99.90;;;;;;5076920;28;20169;-87
2021/06/24 04:10:59;;;;;;;2.50;1.50;;;18.60;99.90;;;;;;5103216;28;20242;-88
2021/06/24 04:13:25;;;;;;;0.43;0.43;;;18.60;99.90;;;;;;5094376;28;20213;-88
2021/06/24 04:15:50;;;;;;;0.70;0.70;;;18.70;99.90;;;;;;5075814;28;20269;-87
2021/06/24 04:18:16;;;;;;;0.90;0.90;;;18.60;99.90;;;;;;5079585;28;20181;-87
2021/06/24 04:20:42;;;;;;;2.80;0.87;;;18.50;99.90;;;;;;5067031;28;20181;-87
2021/06/24 04:23:07;;;;;;;0.40;0.40;;;18.50;99.90;;;;;;5077007;28;20216;-87
2021/06/24 04:25:33;;;;;;;0.93;0.77;;;18.60;99.90;;;;;;5081663;28;20177;-87
2021/06/24 04:28:00;;;;;;;0.80;0.80;;;18.90;99.90;;;;;;5066469;28;20188;-87
2021/06/24 04:30:29;;;;;;;0.57;0.50;;;19.00;99.90;;;;;;5079424;28;20180;-87
2021/06/24 04:32:56;;;;;;;0.60;0.60;;;19.30;99.90;;;;;;5085611;28;20764;-87
2021/06/24 04:35:22;;;;;;;0.50;0.50;;;19.40;99.90;;;;;;5086570;28;20551;-87
2021/06/24 04:37:48;;;;;;;0.77;0.70;;;19.50;99.90;;;;;;5083644;28;20196;-86
2021/06/24 04:40:14;;;;;;;0.97;0.50;;;19.60;99.90;;;;;;5079028;28;20169;-87
2021/06/24 04:42:40;;;;;;;0.60;0.57;;;19.70;99.90;;;;;;5075400;28;20201;-87
2021/06/24 04:45:08;;;;;;;1.17;0.60;;;19.80;99.90;;;;;;5071025;28;20181;-86
2021/06/24 04:47:34;;;;;;;0.80;0.67;;;19.80;99.90;;;;;;5075396;28;20232;-87
2021/06/24 04:50:00;;;;;;;0.70;0.70;;;19.90;99.90;;;;;;5080419;28;20267;-86
2021/06/24 04:52:25;;;;;;;1.53;0.80;;;20.00;99.90;;;;;;5083942;28;20209;-87
2021/06/24 04:54:51;;;;;;;0.50;0.50;;;20.10;99.90;;;;;;5085828;28;20185;-87
2021/06/24 04:57:17;;;;;;;2.03;0.80;;;20.10;99.90;;;;;;5084568;28;20181;-86
2021/06/24 04:59:42;;;;;;;0.60;0.60;;;20.20;99.90;;;;;;5071035;28;20189;-85
2021/06/24 05:02:08;;;;;;;0.87;0.87;;;20.20;99.90;;;;;;5070084;28;20209;-86
2021/06/24 05:04:34;;;;;;;0.93;0.93;;;20.20;99.90;;;;;;5084525;28;20676;-86
2021/06/24 05:07:03;;;;;;;0.77;0.77;;;20.20;99.90;;;;;;5089303;28;20188;-86
2021/06/24 05:09:32;;;;;;;0.80;0.80;;;20.30;99.90;;;;;;5072711;28;20235;-86
2021/06/24 05:11:57;;;;;;;0.60;0.60;;;20.20;99.90;;;;;;5072258;28;20200;-86
2021/06/24 05:14:23;;;;;;;0.87;0.87;;;20.20;99.90;;;;;;5080398;28;20245;-87
2021/06/24 05:16:49;;;;;;;0.60;0.60;;;20.20;99.90;;;;;;5082747;28;20177;-87
2021/06/24 05:19:15;;;;;;;1.00;1.00;;;20.10;99.90;;;;;;5078814;28;20255;-85
2021/06/24 05:21:42;;;;;;;0.60;0.50;;;20.10;99.90;;;;;;5079808;28;20217;-85
2021/06/24 05:24:09;;;;;;;0.70;0.53;;;20.10;99.90;;;;;;5082614;28;20268;-85
2021/06/24 05:26:34;;;;;;;0.70;0.70;;;20.10;99.90;;;;;;5084852;28;20169;-87
2021/06/24 05:29:00;;;;;;;0.70;0.63;;;20.10;99.90;;;;;;5094586;28;20198;-85
2021/06/24 05:31:26;;;;;;;1.37;0.90;;;20.10;99.90;;;;;;5088339;28;20204;-86
2021/06/24 05:33:51;;;;;;;1.10;1.00;;;20.10;99.90;;;;;;5091278;28;20192;-86
2021/06/24 05:36:17;;;;;;;0.93;0.63;;;20.10;99.90;;;;;;5090391;28;20189;-88
2021/06/24 05:38:43;;;;;;;0.40;0.40;;;20.10;99.90;;;;;;5086275;28;20223;-84
2021/06/24 05:41:08;;;;;;;1.83;1.00;;;20.00;99.90;;;;;;5089828;28;20176;-83
2021/06/24 05:43:34;;;;;;;0.60;0.60;;;20.00;99.90;;;;;;5075204;28;20186;-86
2021/06/24 05:46:00;;;;;;;1.10;0.97;;;19.90;99.90;;;;;;5078635;28;20200;-85
2021/06/24 05:48:25;;;;;;;0.73;0.73;;;19.90;99.90;;;;;;5069045;28;20197;-85
2021/06/24 05:50:51;;;;;;;0.67;0.57;;;19.90;99.90;;;;;;5087347;28;20181;-85
2021/06/24 05:53:18;;;;;;;0.60;0.60;;;19.70;99.90;;;;;;5081495;28;20206;-85
2021/06/24 05:55:53;;;;;;;0.60;0.60;;;19.70;99.90;;;;;;5082127;28;20441;-85
2021/06/24 05:58:21;;;;;;;0.50;0.50;;;19.70;99.90;;;;;;5074812;28;20564;-84
2021/06/24 06:00:48;;;;;;;0.43;0.40;;;19.30;99.90;;;;;;5098015;28;20184;-84
2021/06/24 06:03:14;;;;;;;0.50;0.50;;;19.40;99.90;;;;;;5082149;28;20238;-86
2021/06/24 06:05:40;;;;;;;2.30;0.70;;;19.50;99.90;;;;;;5087197;28;20188;-85
2021/06/24 06:08:07;;;;;;;0.47;0.47;;;19.60;99.90;;;;;;5098125;28;20194;-85
2021/06/24 06:10:34;;;;;;;1.67;0.60;;;19.70;99.90;;;;;;5094081;28;20268;-85
2021/06/24 06:13:00;;;;;;;0.73;0.73;;;19.70;99.90;;;;;;5079964;28;20224;-85
2021/06/24 06:15:26;;;;;;;0.80;0.80;;;19.40;99.90;;;;;;5087323;28;20221;-85
2021/06/24 06:17:52;;;;;;;0.53;0.53;;;19.00;99.90;;;;;;5062528;28;20798;-84
2021/06/24 06:20:19;;;;;;;0.90;0.80;;;18.80;99.90;;;;;;5073891;28;20211;-83
2021/06/24 06:22:44;;;;;;;0.87;0.80;;;18.40;99.90;;;;;;5069831;28;20231;-84
2021/06/24 06:25:11;;;;;;;1.23;1.13;;;18.20;99.90;;;;;;5070229;28;20560;-84
2021/06/24 06:27:37;;;;;;;0.80;0.80;;;17.90;99.90;;;;;;5064150;28;20188;-84
2021/06/24 06:30:04;;;;;;;0.93;0.93;;;17.80;99.90;;;;;;5073755;28;20281;-85
2021/06/24 06:32:30;;;;;;;0.90;0.80;;;17.80;99.90;;;;;;5063825;28;20212;-85
2021/06/24 06:34:55;;;;;;;1.17;1.13;;;17.80;99.90;;;;;;5074456;28;20271;-85
2021/06/24 06:37:21;;;;;;;1.43;1.17;;;17.80;99.90;;;;;;5074626;28;20180;-85
2021/06/24 06:39:47;;;;;;;0.60;0.60;;;17.80;99.90;;;;;;5075661;28;20270;-85
2021/06/24 06:42:12;;;;;;;0.93;0.93;;;17.90;99.90;;;;;;5071760;28;20293;-84
2021/06/24 06:44:39;;;;;;;0.67;0.67;;;17.80;99.90;;;;;;5072702;28;20215;-85
2021/06/24 06:47:05;;;;;;;0.77;0.77;;;17.80;99.90;;;;;;5083983;28;20185;-84
2021/06/24 06:49:30;;;;;;;0.67;0.67;;;17.90;99.90;;;;;;5082171;28;20211;-84
2021/06/24 06:51:58;;;;;;;0.30;0.30;;;18.20;99.90;;;;;;5068816;28;20585;-85
2021/06/24 06:54:25;;;;;;;0.87;0.70;;;18.30;99.90;;;;;;5075277;28;20596;-85
2021/06/24 06:56:50;;;;;;;0.73;0.73;;;18.50;99.90;;;;;;5086575;28;20181;-84
2021/06/24 06:59:16;;;;;;;0.57;0.57;;;18.60;99.90;;;;;;5065407;28;20237;-85
2021/06/24 07:01:42;;;;;;;0.43;0.43;;;18.70;99.90;;;;;;5078290;28;20223;-84
2021/06/24 07:04:08;;;;;;;0.83;0.83;;;18.50;99.90;;;;;;5077991;28;20262;-84
2021/06/24 07:06:34;;;;;;;0.67;0.37;;;18.40;99.90;;;;;;5084073;28;20201;-85
2021/06/24 07:09:00;;;;;;;0.73;0.73;;;18.60;99.90;;;;;;5059113;28;20181;-85
2021/06/24 07:11:26;;;;;;;0.77;0.77;;;18.90;99.90;;;;;;5064447;28;20213;-85
2021/06/24 07:13:52;;;;;;;1.73;0.93;;;19.20;99.90;;;;;;5057495;28;20217;-84
2021/06/24 07:16:19;;;;;;;0.67;0.67;;;18.90;99.90;;;;;;5064685;28;20233;-84
2021/06/24 07:18:47;;;;;;;0.70;0.70;;;18.70;99.90;;;;;;5065394;28;20185;-84
2021/06/24 07:21:12;;;;;;;1.37;1.27;;;18.70;99.90;;;;;;5068792;28;20215;-84
2021/06/24 07:23:38;;;;;;;1.70;0.93;;;18.60;99.90;;;;;;5068182;28;20191;-84
2021/06/24 07:26:04;;;;;;;1.27;1.17;;;18.60;99.90;;;;;;5064990;28;20183;-84
2021/06/24 07:28:30;;;;;;;2.80;2.60;;;18.30;99.90;;;;;;5071649;28;20653;-84
2021/06/24 07:30:56;;;;;;;6.20;1.90;;;18.30;99.90;;;;;;5069743;28;20202;-85
2021/06/24 07:33:21;;;;;;;0.83;0.83;;;18.20;99.90;;;;;;5066997;28;20212;-84
2021/06/24 07:35:48;;;;;;;2.20;2.10;;;18.30;99.90;;;;;;5087545;28;20249;-84
2021/06/24 07:38:14;;;;;;;1.43;1.30;;;18.10;99.90;;;;;;5074079;28;20181;-83
2021/06/24 07:40:40;;;;;;;1.63;1.53;;;18.10;99.90;;;;;;5076211;28;20189;-84
2021/06/24 07:43:07;;;;;;;0.67;0.67;;;18.00;99.90;;;;;;5072899;28;20238;-85
2021/06/24 07:45:33;;;;;;;0.90;0.90;;;18.10;99.90;;;;;;5088286;28;20192;-86
2021/06/24 07:47:59;;;;;;;0.57;0.50;;;18.30;99.90;;;;;;5077261;28;20687;-85
2021/06/24 07:50:25;;;;;;;0.73;0.73;;;18.70;99.90;;;;;;5078167;28;20184;-86
2021/06/24 07:52:50;;;;;;;0.70;0.70;;;18.70;99.90;;;;;;5070737;28;20216;-84
2021/06/24 07:55:16;;;;;;;2.03;0.90;;;18.70;99.90;;;;;;5068732;28;20565;-86
2021/06/24 07:57:43;;;;;;;1.20;1.10;;;18.50;99.90;;;;;;5060810;28;20178;-86
2021/06/24 08:00:12;;;;;;;1.47;1.37;;;18.40;99.90;;;;;;5069219;28;20184;-86
2021/06/24 08:02:37;;;;;;;2.83;1.40;;;18.20;99.90;;;;;;5072192;28;20208;-86
2021/06/24 08:05:05;;;;;;;1.67;1.37;;;17.90;99.90;;;;;;5078982;28;20188;-86
2021/06/24 08:07:30;;;;;;;1.73;1.30;;;17.80;99.90;;;;;;5072439;28;20666;-86
2021/06/24 08:10:01;;;;;;;4.47;1.53;;;17.70;99.90;;;;;;5051883;28;20187;-86
2021/06/24 08:12:27;;;;;;;1.63;1.53;;;17.60;99.90;;;;;;5056793;28;20214;-87
2021/06/24 08:14:52;;;;;;;1.13;1.10;;;17.50;99.90;;;;;;5065102;28;20263;-86
2021/06/24 08:17:18;;;;;;;3.03;1.33;;;17.50;99.90;;;;;;5072455;28;20188;-86
2021/06/24 08:20:16;;;;;;;2.80;1.83;;;17.50;99.90;;;;;;5073830;28;20558;-86
2021/06/24 08:22:50;;;;;;;1.40;1.33;;;17.40;99.90;;;;;;5062906;28;20295;-86
2021/06/24 08:25:16;;;;;;;1.80;1.70;;;17.40;99.90;;;;;;5083194;28;20612;-86
2021/06/24 08:27:41;;;;;;;1.93;0.87;;;17.40;99.90;;;;;;5074209;28;20187;-86
2021/06/24 08:30:10;;;;;;;0.60;0.60;;;17.50;99.90;;;;;;5071799;28;20560;-86
2021/06/24 08:32:37;;;;;;;0.93;0.77;;;17.50;99.90;;;;;;5069015;28;20233;-86
2021/06/24 08:35:05;;;;;;;0.80;0.80;;;17.50;99.90;;;;;;5073597;28;20270;-85
2021/06/24 08:37:34;;;;;;;1.80;1.70;;;17.50;99.90;;;;;;5071515;28;20184;-85
2021/06/24 08:39:59;;;;;;;0.73;0.73;;;17.40;99.90;;;;;;5084440;28;20547;-85
2021/06/24 08:42:25;;;;;;;1.47;1.17;;;17.50;99.90;;;;;;5059816;28;20208;-85
2021/06/24 08:44:52;;;;;;;0.97;0.97;;;17.60;99.90;;;;;;5073770;28;20219;-85
2021/06/24 08:47:20;;;;;;;1.37;1.20;;;17.70;99.90;;;;;;5084429;28;20722;-85
2021/06/24 08:49:49;;;;;;;1.03;1.03;;;17.80;99.90;;;;;;5069492;28;20191;-89
2021/06/24 08:52:14;;;;;;;1.20;0.80;;;17.80;99.90;;;;;;5053074;28;20209;-86
2021/06/24 08:54:40;;;;;;;0.93;0.93;;;17.80;99.90;;;;;;5065048;28;22126;-86
2021/06/24 08:57:06;;;;;;;0.87;0.87;;;17.80;99.90;;;;;;5056902;28;20185;-86
2021/06/24 08:59:32;;;;;;;3.17;2.17;;;17.80;99.90;;;;;;5059329;28;20629;-86
2021/06/24 09:01:58;;;;;;;1.00;1.00;;;17.80;99.90;;;;;;5072230;28;20217;-86
2021/06/24 09:04:26;;;;;;;1.37;1.07;;;17.90;99.90;;;;;;5077437;28;20192;-86
2021/06/24 09:06:53;;;;;;;2.77;1.03;;;17.90;99.90;;;;;;5084973;28;20181;-86
2021/06/24 09:09:29;;;;;;;2.00;0.97;;;17.90;99.90;;;;;;5071103;28;20176;-86
2021/06/24 09:12:10;;;;;;;1.40;1.07;;;17.90;99.90;;;;;;5082655;28;20211;-86
2021/06/24 09:14:47;;;;;;;1.33;1.27;;;17.90;99.90;;;;;;5076710;28;20552;-86
2021/06/24 09:17:38;;;;;;;3.63;1.33;;;17.80;99.90;;;;;;5071380;28;20201;-86
2021/06/24 09:20:26;;;;;;;1.47;1.20;;;17.90;99.90;;;;;;5076629;28;20176;-86
2021/06/24 09:23:09;;;;;;;0.40;0.40;;;17.90;99.90;;;;;;5060846;28;20228;-86
2021/06/24 09:25:46;;;;;;;1.27;1.17;;;18.00;99.90;;;;;;5072620;28;20186;-87
2021/06/24 09:28:13;;;;;;;1.47;1.27;;;18.10;99.90;;;;;;5077126;28;20185;-86
2021/06/24 09:30:42;;;;;;;0.93;0.93;;;18.00;99.90;;;;;;5077100;28;20275;-86
2021/06/24 09:33:12;;;;;;;1.93;1.33;;;18.00;99.90;;;;;;5080807;28;20222;-86
2021/06/24 09:35:42;;;;;;;2.20;1.33;;;17.90;99.90;;;;;;5068747;28;20194;-87
2021/06/24 09:38:14;;;;;;;0.97;0.97;;;17.90;99.90;;;;;;5075937;28;20173;-86
2021/06/24 09:40:54;;;;;;;0.73;0.73;;;17.90;99.90;;;;;;5069671;28;20181;-86
2021/06/24 09:43:37;;;;;;;1.97;1.07;;;17.90;99.90;;;;;;5066532;28;20295;-86
2021/06/24 09:46:14;;;;;;;0.50;0.50;;;17.80;99.90;;;;;;5086364;28;20188;-86
2021/06/24 09:48:42;;;;;;;1.20;0.77;;;17.90;99.90;;;;;;5068450;28;20268;-87
2021/06/24 09:51:22;;;;;;;1.87;1.33;;;17.80;99.90;;;;;;5079924;28;20184;-86
2021/06/24 09:53:55;;;;;;;0.80;0.53;;;17.80;99.90;;;;;;5089264;28;20207;-86
2021/06/24 09:56:28;;;;;;;0.80;0.80;;;18.00;99.90;;;;;;5078615;28;20646;-87
2021/06/24 09:58:56;;;;;;;1.37;1.27;;;17.80;99.90;;;;;;5060365;28;20173;-87
2021/06/24 10:01:33;;;;;;;0.97;0.97;;;17.70;99.90;;;;;;5064531;28;20912;-87
2021/06/24 10:04:00;;;;;;;2.20;1.27;;;17.80;99.90;;;;;;5085505;28;20212;-86
2021/06/24 10:06:27;;;;;;;1.73;0.93;;;17.80;99.90;;;;;;5083427;28;20190;-86
2021/06/24 10:08:59;;;;;;;1.00;0.80;;;17.70;99.90;;;;;;5064504;28;20262;-87
2021/06/24 10:11:26;;;;;;;0.80;0.80;;;17.60;99.90;;;;;;5070470;28;20179;-86
2021/06/24 10:13:51;;;;;;;1.47;1.10;;;17.80;99.90;;;;;;5080568;28;20269;-86
2021/06/24 10:16:18;;;;;;;1.90;1.03;;;17.70;99.90;;;;;;5067435;28;20181;-87
2021/06/24 10:18:47;;;;;;;1.17;1.07;;;17.60;99.90;;;;;;5072477;28;20173;-86
2021/06/24 10:21:15;;;;;;;1.23;1.10;;;17.50;99.90;;;;;;5077066;28;20731;-84
2021/06/24 10:23:53;;;;;;;2.83;0.90;;;17.70;99.90;;;;;;5064745;28;20186;-85
2021/06/24 10:26:21;;;;;;;1.93;1.00;;;17.60;99.90;;;;;;5060194;28;20177;-87
2021/06/24 10:28:47;;;;;;;1.80;0.73;;;17.60;99.90;;;;;;5065604;28;20614;-86
2021/06/24 10:31:43;;;;;;;1.20;1.20;;;17.50;99.90;;;;;;5086336;28;20263;-86
2021/06/24 10:34:10;;;;;;;1.47;1.47;;;17.50;99.90;;;;;;5063828;28;20193;-87
2021/06/24 10:36:36;;;;;;;1.13;0.80;;;17.50;99.90;;;;;;5072410;28;20765;-87
2021/06/24 10:39:03;;;;;;;0.77;0.77;;;17.50;99.90;;;;;;5070874;28;20191;-86
2021/06/24 10:42:01;;;;;;;1.47;1.20;;;17.50;99.90;;;;;;5077629;28;20623;-85
2021/06/24 10:44:45;;;;;;;0.50;0.50;;;17.40;99.90;;;;;;5064180;28;20191;-87
2021/06/24 10:47:12;;;;;;;1.80;1.70;;;17.50;99.90;;;;;;5069837;28;20205;-86
2021/06/24 10:49:38;;;;;;;1.20;1.10;;;17.40;99.90;;;;;;5079973;28;20194;-87
2021/06/24 10:52:18;;;;;;;1.97;1.30;;;17.30;99.90;;;;;;5071294;28;20696;-84
2021/06/24 10:54:44;;;;;;;1.93;0.93;;;17.30;99.90;;;;;;5074508;28;20198;-84
2021/06/24 10:57:37;;;;;;;1.27;0.87;;;17.40;99.90;;;;;;5072541;28;20248;-86
2021/06/24 11:00:33;;;;;;;3.27;2.10;;;17.40;99.90;;;;;;5069947;28;20199;-85
2021/06/24 11:03:00;;;;;;;1.23;0.93;;;17.40;99.90;;;;;;5067029;28;20220;-86
2021/06/24 11:05:40;;;;;;;1.87;1.27;;;17.50;99.90;;;;;;5081086;28;20245;-86
2021/06/24 11:08:14;;;;;;;2.93;1.43;;;17.60;99.90;;;;;;5064344;28;20191;-86
2021/06/24 11:11:11;;;;;;;1.03;0.77;;;17.60;99.90;;;;;;5063572;28;20215;-86
2021/06/24 11:13:42;;;;;;;1.63;1.37;;;17.60;99.90;;;;;;5083891;28;20207;-86
2021/06/24 11:16:27;;;;;;;1.03;0.93;;;17.60;99.90;;;;;;5073989;28;20741;-86
2021/06/24 11:19:08;;;;;;;1.37;1.27;;;17.70;99.90;;;;;;5079966;28;20188;-86
2021/06/24 11:21:34;;;;;;;1.67;1.20;;;17.80;99.90;;;;;;5067376;28;20230;-86
2021/06/24 11:24:07;;;;;;;1.20;1.20;;;17.80;99.90;;;;;;5069836;28;20185;-86
2021/06/24 11:26:39;;;;;;;0.73;0.73;;;17.80;99.90;;;;;;5071804;28;20715;-87
2021/06/24 11:29:11;;;;;;;1.10;1.10;;;18.00;99.90;;;;;;5077761;28;20181;-86
2021/06/24 11:31:42;;;;;;;1.13;1.03;;;18.10;99.90;;;;;;5080589;28;20209;-85
2021/06/24 11:34:54;;;;;;;2.63;1.37;;;18.10;99.90;;;;;;5073691;28;20237;-86
2021/06/24 11:37:26;;;;;;;2.63;1.00;;;18.10;99.90;;;;;;5072278;28;20262;-86
2021/06/24 11:40:07;;;;;;;2.73;2.53;;;18.10;99.90;;;;;;5069248;28;20183;-86
2021/06/24 11:42:41;;;;;;;0.60;0.60;;;18.20;99.90;;;;;;5075805;28;20242;-85
2021/06/24 11:45:09;;;;;;;1.27;1.00;;;18.20;99.90;;;;;;5083096;28;20532;-86
2021/06/24 11:47:38;;;;;;;0.50;0.50;;;18.30;99.90;;;;;;5064706;28;20266;-86
2021/06/24 12:04:08;;;;;;;0.97;0.93;;;18.90;99.90;;;;;;5067663;28;20219;-86
2021/06/24 12:06:47;;;;;;;1.13;1.07;;;18.80;99.90;;;;;;5066994;28;20273;-86
2021/06/24 12:09:13;;;;;;;0.47;0.47;;;18.70;99.90;;;;;;5066491;28;20192;-86
2021/06/24 12:11:41;;;;;;;3.50;1.87;;;19.10;99.90;;;;;;5070961;28;20665;-86
2021/06/24 12:14:25;;;;;;;2.67;1.10;;;19.00;99.90;;;;;;5080959;28;20201;-86
2021/06/24 12:17:22;;;;;;;1.23;1.13;;;18.70;99.90;;;;;;5076438;28;20214;-86
2021/06/24 12:19:50;;;;;;;1.20;1.10;;;18.50;99.90;;;;;;5075431;28;20184;-86
2021/06/24 12:22:18;;;;;;;0.67;0.67;;;18.60;99.90;;;;;;5070346;28;20229;-86
2021/06/24 12:24:46;;;;;;;1.07;1.03;;;18.40;99.90;;;;;;5072625;28;20728;-87
2021/06/24 12:27:15;;;;;;;1.47;0.70;;;18.40;99.90;;;;;;5074442;28;20205;-86
2021/06/24 12:29:41;;;;;;;1.27;1.17;;;18.40;99.90;;;;;;5054409;28;20546;-86
2021/06/24 12:32:07;;;;;;;1.33;1.17;;;18.40;99.90;;;;;;5058460;28;20215;-86
2021/06/24 12:34:33;;;;;;;2.37;1.10;;;18.30;99.90;;;;;;5064111;28;20216;-86
2021/06/24 12:36:58;;;;;;;5.30;0.80;;;18.40;99.90;;;;;;5067992;28;20802;-85
2021/06/24 12:39:24;;;;;;;1.43;1.07;;;18.50;99.90;;;;;;5065540;28;20194;-86
2021/06/24 12:41:51;;;;;;;1.27;0.93;;;18.40;99.90;;;;;;5075400;28;20206;-86
2021/06/24 12:44:17;;;;;;;0.60;0.60;;;18.30;99.90;;;;;;5074785;28;20676;-86
2021/06/24 12:46:43;;;;;;;1.07;0.97;;;18.40;99.90;;;;;;5076593;28;20211;-86
2021/06/24 12:49:16;;;;;;;1.23;0.90;;;18.20;99.90;;;;;;5070278;28;20189;-86
2021/06/24 12:51:43;;;;;;;1.47;0.90;;;18.20;99.90;;;;;;5074416;28;20227;-86
2021/06/24 12:54:17;;;;;;;0.67;0.67;;;18.50;99.90;;;;;;5070883;28;20265;-86
2021/06/24 12:56:48;;;;;;;0.97;0.80;;;18.40;99.90;;;;;;5067404;28;20233;-86
2021/06/24 12:59:20;;;;;;;0.53;0.53;;;18.40;99.90;;;;;;5075681;28;20212;-86
2021/06/24 13:01:48;;;;;;;0.97;0.97;;;18.50;99.90;;;;;;5070940;28;20246;-86
2021/06/24 13:04:16;;;;;;;0.93;0.93;;;18.50;99.90;;;;;;5071623;28;20207;-86
2021/06/24 13:06:47;;;;;;;2.17;1.03;;;18.40;99.90;;;;;;5075961;28;20195;-89
2021/06/24 13:09:46;;;;;;;0.87;0.80;;;18.40;99.90;;;;;;5066218;28;20187;-86